Time;durP1;ratioP1;P1;durP2;ratioP2;P2;SDS_P1;SDS_P2;PMS_P1;PMS_P2;Temp;Humidity;BMP_temperature;BMP_pressure;BME280_temperature;BME280_humidity;BME280_pressure;Samples;Min_cycle;Max_cycle;Signal;HPM_P1;HPM_P2
2021/06/15 00:01:43;;;;;;;0.10;0.10;;;19.40;69.70;;;;;;5081813;28;20140;-67
2021/06/15 00:04:09;;;;;;;0.10;0.10;;;19.40;69.60;;;;;;5091500;28;20048;-67
2021/06/15 00:06:36;;;;;;;0.10;0.10;;;19.40;70.00;;;;;;5091745;28;20412;-67
2021/06/15 00:09:03;;;;;;;0.00;0.00;;;19.40;70.20;;;;;;5091748;28;20048;-67
2021/06/15 00:11:29;;;;;;;0.10;0.10;;;19.30;70.50;;;;;;5091573;28;20044;-66
2021/06/15 00:13:56;;;;;;;0.10;0.10;;;19.30;70.70;;;;;;5091729;28;20127;-67
2021/06/15 00:16:22;;;;;;;0.05;0.05;;;19.40;70.90;;;;;;5091963;28;20060;-67
2021/06/15 00:18:48;;;;;;;0.08;0.08;;;19.30;70.90;;;;;;5083962;28;20051;-67
2021/06/15 00:21:15;;;;;;;0.10;0.10;;;19.20;71.50;;;;;;5087516;28;20044;-67
2021/06/15 00:23:41;;;;;;;0.10;0.10;;;19.20;72.00;;;;;;5091752;28;20048;-67
2021/06/15 00:26:08;;;;;;;0.03;0.03;;;19.10;72.00;;;;;;5091519;28;20108;-67
2021/06/15 00:28:36;;;;;;;0.05;0.05;;;19.10;72.40;;;;;;5085534;28;20051;-67
2021/06/15 00:31:03;;;;;;;0.10;0.10;;;19.20;72.30;;;;;;5083776;28;20093;-67
2021/06/15 00:33:30;;;;;;;0.10;0.10;;;19.30;72.20;;;;;;5091566;28;20408;-67
2021/06/15 00:35:56;;;;;;;0.00;0.00;;;19.30;72.10;;;;;;5091690;28;20052;-67
2021/06/15 00:38:23;;;;;;;0.03;0.03;;;19.40;72.00;;;;;;5074244;28;20411;-67
2021/06/15 00:40:49;;;;;;;0.10;0.10;;;19.40;72.30;;;;;;5094778;28;20050;-67
2021/06/15 00:43:16;;;;;;;0.00;0.00;;;19.40;72.50;;;;;;5095221;28;20044;-67
2021/06/15 00:45:42;;;;;;;0.10;0.10;;;19.50;72.60;;;;;;5095243;28;20086;-67
2021/06/15 00:48:25;;;;;;;0.10;0.10;;;19.50;72.40;;;;;;5094897;28;20055;-67
2021/06/15 00:50:52;;;;;;;0.00;0.00;;;19.50;72.40;;;;;;5095340;28;20055;-67
2021/06/15 00:53:18;;;;;;;0.10;0.10;;;19.50;72.60;;;;;;5095317;28;20044;-67
2021/06/15 00:55:46;;;;;;;0.10;0.10;;;19.50;72.70;;;;;;5089069;28;20407;-67
2021/06/15 00:58:12;;;;;;;0.10;0.10;;;19.40;73.20;;;;;;5094413;28;20041;-67
2021/06/15 01:00:39;;;;;;;0.08;0.08;;;19.40;73.20;;;;;;5085160;28;20045;-67
2021/06/15 01:03:06;;;;;;;0.10;0.10;;;19.40;73.30;;;;;;5091049;28;20044;-67
2021/06/15 01:05:34;;;;;;;0.20;0.20;;;19.50;73.30;;;;;;5094648;28;20081;-67
2021/06/15 01:08:27;;;;;;;0.15;0.10;;;19.50;73.20;;;;;;5094763;28;20048;-67
2021/06/15 01:11:09;;;;;;;0.00;0.00;;;19.60;73.10;;;;;;5094517;28;20052;-67
2021/06/15 01:13:38;;;;;;;0.00;0.00;;;19.50;73.30;;;;;;5094441;28;20059;-67
2021/06/15 01:16:15;;;;;;;0.40;0.10;;;19.50;73.60;;;;;;5094413;28;20040;-67
2021/06/15 01:18:48;;;;;;;0.10;0.10;;;19.50;73.70;;;;;;5087594;28;20048;-67
2021/06/15 01:21:16;;;;;;;0.10;0.10;;;19.50;73.70;;;;;;5090249;28;20055;-67
2021/06/15 01:23:49;;;;;;;0.10;0.10;;;19.40;74.10;;;;;;5094436;28;20063;-67
2021/06/15 01:27:01;;;;;;;0.10;0.10;;;19.40;74.50;;;;;;5094137;28;20136;-67
2021/06/15 01:29:38;;;;;;;0.20;0.10;;;19.40;74.30;;;;;;5011662;28;20053;-67
2021/06/15 01:32:09;;;;;;;0.22;0.22;;;19.50;74.40;;;;;;4999032;28;20050;-67
2021/06/15 01:34:38;;;;;;;;;;;19.50;74.10;;;;;;5010531;28;20054;-67
2021/06/15 01:37:28;;;;;;;0.10;0.10;;;19.50;73.90;;;;;;5011434;28;19925;-67
2021/06/15 01:40:08;;;;;;;0.30;0.30;;;19.50;74.40;;;;;;5010684;28;20091;-67
2021/06/15 01:43:02;;;;;;;0.10;0.10;;;19.40;74.60;;;;;;4999937;28;20051;-67
2021/06/15 01:45:36;;;;;;;0.08;0.08;;;19.40;74.90;;;;;;5008976;28;20133;-67
2021/06/15 01:48:47;;;;;;;0.10;0.10;;;19.40;74.90;;;;;;5011652;28;20482;-67
2021/06/15 01:51:14;;;;;;;;;;;19.40;75.00;;;;;;5012299;28;20137;-67
2021/06/15 01:53:45;;;;;;;0.10;0.10;;;19.30;75.20;;;;;;5011183;28;19922;-67
2021/06/15 01:56:15;;;;;;;0.00;0.00;;;19.50;74.80;;;;;;5006246;28;20045;-67
2021/06/15 01:58:44;;;;;;;0.20;0.10;;;19.50;74.20;;;;;;5011564;28;20054;-67
2021/06/15 02:01:11;;;;;;;0.15;0.08;;;19.50;74.20;;;;;;5001530;28;20042;-67
2021/06/15 02:03:39;;;;;;;0.10;0.10;;;19.60;74.30;;;;;;5006817;28;20046;-67
2021/06/15 02:06:07;;;;;;;0.10;0.10;;;19.60;74.30;;;;;;5055383;28;20059;-67
2021/06/15 02:08:46;;;;;;;0.00;0.00;;;19.60;74.20;;;;;;5093559;28;20052;-67
2021/06/15 02:11:13;;;;;;;0.10;0.10;;;19.60;74.20;;;;;;5093151;28;20044;-67
2021/06/15 02:13:45;;;;;;;0.10;0.10;;;19.60;74.50;;;;;;5093146;28;20048;-67
2021/06/15 02:16:12;;;;;;;0.00;0.00;;;19.60;74.60;;;;;;5092695;28;20506;-67
2021/06/15 02:18:42;;;;;;;0.30;0.03;;;19.60;74.60;;;;;;5087112;28;20044;-67
2021/06/15 02:21:14;;;;;;;0.20;0.20;;;19.60;74.90;;;;;;5080601;28;20415;-67
2021/06/15 02:23:44;;;;;;;0.00;0.00;;;19.60;74.90;;;;;;5093293;28;20044;-67
2021/06/15 02:26:14;;;;;;;0.10;0.10;;;19.50;74.80;;;;;;5092717;28;20052;-67
2021/06/15 02:28:40;;;;;;;0.13;0.13;;;19.60;74.70;;;;;;5093427;28;20181;-67
2021/06/15 02:31:14;;;;;;;0.10;0.10;;;19.60;74.50;;;;;;5092375;28;20056;-67
2021/06/15 02:33:47;;;;;;;0.20;0.13;;;19.60;74.30;;;;;;5092271;28;20040;-67
2021/06/15 02:36:24;;;;;;;0.20;0.20;;;19.60;74.90;;;;;;5092635;28;20048;-67
2021/06/15 02:39:16;;;;;;;0.10;0.10;;;19.60;74.70;;;;;;5093041;28;20463;-67
2021/06/15 02:41:43;;;;;;;0.20;0.20;;;19.60;74.50;;;;;;5075523;28;20063;-67
2021/06/15 02:44:18;;;;;;;0.10;0.10;;;19.60;74.40;;;;;;5089764;28;20048;-67
2021/06/15 02:46:49;;;;;;;0.10;0.10;;;19.50;74.50;;;;;;5089025;28;20048;-67
2021/06/15 02:49:19;;;;;;;0.10;0.10;;;19.50;74.50;;;;;;5079862;28;20051;-67
2021/06/15 02:51:58;;;;;;;0.10;0.10;;;19.60;74.00;;;;;;5077819;28;20067;-67
2021/06/15 02:54:54;;;;;;;0.10;0.10;;;19.60;74.00;;;;;;5064818;28;20048;-67
2021/06/15 02:57:24;;;;;;;0.10;0.10;;;19.50;74.40;;;;;;4986814;28;20479;-67
2021/06/15 02:59:52;;;;;;;0.00;0.00;;;19.50;74.70;;;;;;4987072;28;20066;-67
2021/06/15 03:02:19;;;;;;;0.10;0.10;;;19.50;74.40;;;;;;4970864;28;21037;-67
2021/06/15 03:04:46;;;;;;;0.10;0.10;;;19.50;74.10;;;;;;4985166;28;20069;-67
2021/06/15 03:07:14;;;;;;;0.10;0.10;;;19.50;74.40;;;;;;4996596;28;20493;-66
2021/06/15 03:09:41;;;;;;;0.10;0.10;;;19.40;74.80;;;;;;4990483;28;20050;-67
2021/06/15 03:12:16;;;;;;;0.10;0.10;;;19.40;74.90;;;;;;4990725;28;20046;-67
2021/06/15 03:14:47;;;;;;;0.00;0.00;;;19.40;74.90;;;;;;4990279;28;20054;-67
2021/06/15 03:17:14;;;;;;;0.10;0.10;;;19.40;74.70;;;;;;4990151;28;20050;-67
2021/06/15 03:19:43;;;;;;;0.10;0.10;;;19.40;74.80;;;;;;4984058;28;20043;-67
2021/06/15 03:22:15;;;;;;;0.10;0.10;;;19.50;74.80;;;;;;4970942;28;20086;-67
2021/06/15 03:24:53;;;;;;;0.08;0.08;;;19.50;74.70;;;;;;4987621;28;20058;-67
2021/06/15 03:27:44;;;;;;;0.10;0.10;;;19.40;75.00;;;;;;4990448;28;20046;-67
2021/06/15 03:30:12;;;;;;;0.08;0.08;;;19.40;75.10;;;;;;4989496;28;20422;-67
2021/06/15 03:32:46;;;;;;;0.10;0.10;;;19.40;75.20;;;;;;4989897;28;20050;-67
2021/06/15 03:35:14;;;;;;;0.10;0.10;;;19.40;75.10;;;;;;5057733;28;20079;-67
2021/06/15 03:37:48;;;;;;;0.05;0.05;;;19.50;74.70;;;;;;5091886;28;20059;-67
2021/06/15 03:40:16;;;;;;;0.00;0.00;;;19.50;74.60;;;;;;5092091;28;20055;-67
2021/06/15 03:42:43;;;;;;;0.10;0.10;;;19.50;74.10;;;;;;5091946;28;20487;-67
2021/06/15 03:45:11;;;;;;;0.00;0.00;;;19.40;74.70;;;;;;5091700;28;20040;-67
2021/06/15 03:47:39;;;;;;;0.10;0.10;;;19.40;74.70;;;;;;5082355;28;20049;-67
2021/06/15 03:50:08;;;;;;;0.00;0.00;;;19.30;75.20;;;;;;5087725;28;20048;-67
2021/06/15 03:52:37;;;;;;;0.00;0.00;;;19.30;75.70;;;;;;5084209;28;20499;-67
2021/06/15 03:55:08;;;;;;;0.10;0.10;;;19.30;75.40;;;;;;5073845;28;20124;-67
2021/06/15 03:57:41;;;;;;;0.00;0.00;;;19.30;75.60;;;;;;5075264;28;20123;-67
2021/06/15 04:00:09;;;;;;;0.10;0.10;;;19.40;75.20;;;;;;5079110;28;20036;-67
2021/06/15 04:02:39;;;;;;;0.00;0.00;;;19.30;75.80;;;;;;5091656;28;20539;-67
2021/06/15 04:05:07;;;;;;;0.05;0.03;;;19.30;75.80;;;;;;5079757;28;20420;-67
2021/06/15 04:07:34;;;;;;;0.10;0.10;;;19.30;75.80;;;;;;5090040;28;20040;-67
2021/06/15 04:10:03;;;;;;;0.10;0.10;;;19.40;75.80;;;;;;5073346;28;20040;-67
2021/06/15 04:12:30;;;;;;;0.10;0.10;;;19.30;75.80;;;;;;5092193;28;20134;-67
2021/06/15 04:15:00;;;;;;;0.15;0.10;;;19.30;75.80;;;;;;5093078;28;20083;-67
2021/06/15 04:17:28;;;;;;;0.00;0.00;;;19.30;75.70;;;;;;5091323;28;20044;-67
2021/06/15 04:19:57;;;;;;;0.10;0.10;;;19.40;75.60;;;;;;5087415;28;20048;-67
2021/06/15 04:22:33;;;;;;;0.10;0.10;;;19.40;75.40;;;;;;5095254;28;20119;-67
2021/06/15 04:25:06;;;;;;;0.00;0.00;;;19.40;75.30;;;;;;5095797;28;20123;-67
2021/06/15 04:27:34;;;;;;;0.13;0.10;;;19.40;75.50;;;;;;5094923;28;20048;-67
2021/06/15 04:30:02;;;;;;;0.30;0.20;;;19.30;75.50;;;;;;5095078;28;20048;-67
2021/06/15 04:32:55;;;;;;;0.10;0.10;;;19.30;75.80;;;;;;5095257;28;20040;-67
2021/06/15 04:35:29;;;;;;;0.10;0.10;;;19.30;75.30;;;;;;5057135;28;20119;-67
2021/06/15 04:38:01;;;;;;;0.00;0.00;;;19.20;75.90;;;;;;5091718;28;20048;-67
2021/06/15 04:40:31;;;;;;;0.00;0.00;;;19.30;75.60;;;;;;5095215;28;20491;-67
2021/06/15 04:43:09;;;;;;;0.10;0.10;;;19.30;75.30;;;;;;5085881;28;20045;-67
2021/06/15 04:45:42;;;;;;;0.00;0.00;;;19.30;75.30;;;;;;5095020;28;20052;-67
2021/06/15 04:48:14;;;;;;;0.10;0.10;;;19.40;75.50;;;;;;5094734;28;20048;-67
2021/06/15 04:50:41;;;;;;;0.15;0.15;;;19.40;75.30;;;;;;5076516;28;20051;-67
2021/06/15 04:53:09;;;;;;;0.10;0.10;;;19.40;75.50;;;;;;5083010;28;20049;-67
2021/06/15 04:55:38;;;;;;;0.00;0.00;;;19.30;75.70;;;;;;5087017;28;20040;-67
2021/06/15 04:58:08;;;;;;;0.10;0.10;;;19.30;75.80;;;;;;5091804;28;20055;-67
2021/06/15 05:00:35;;;;;;;0.10;0.10;;;19.40;75.40;;;;;;5088339;28;20044;-67
2021/06/15 05:03:04;;;;;;;0.15;0.10;;;19.50;74.70;;;;;;5088391;28;20101;-67
2021/06/15 05:05:30;;;;;;;0.20;0.10;;;19.50;74.50;;;;;;5074496;28;20500;-67
2021/06/15 05:08:00;;;;;;;0.10;0.10;;;19.60;74.60;;;;;;5080806;28;20082;-67
2021/06/15 05:10:32;;;;;;;0.10;0.10;;;19.60;74.70;;;;;;5073915;28;20056;-67
2021/06/15 05:12:58;;;;;;;0.10;0.10;;;19.50;75.00;;;;;;5084332;28;20049;-67
2021/06/15 05:15:27;;;;;;;0.10;0.10;;;19.50;76.20;;;;;;5074140;28;20052;-67
2021/06/15 05:17:57;;;;;;;0.10;0.10;;;19.50;75.10;;;;;;5078280;28;20048;-67
2021/06/15 05:20:25;;;;;;;0.15;0.15;;;19.50;75.10;;;;;;5082899;28;20048;-67
2021/06/15 05:23:21;;;;;;;0.35;0.10;;;19.50;75.20;;;;;;5082719;28;20480;-67
2021/06/15 05:25:50;;;;;;;0.28;0.20;;;19.50;75.40;;;;;;5070836;28;20049;-67
2021/06/15 05:28:17;;;;;;;0.00;0.00;;;19.70;74.80;;;;;;5076311;28;20311;-67
2021/06/15 05:30:44;;;;;;;0.17;0.17;;;19.70;74.70;;;;;;5082849;28;20049;-67
2021/06/15 05:33:14;;;;;;;0.10;0.10;;;19.70;74.30;;;;;;5075823;28;20112;-67
2021/06/15 05:35:40;;;;;;;0.00;0.00;;;19.70;74.20;;;;;;5074636;28;20040;-67
2021/06/15 05:38:09;;;;;;;0.00;0.00;;;19.70;74.40;;;;;;5074962;28;20045;-67
2021/06/15 05:40:37;;;;;;;0.10;0.10;;;19.70;73.80;;;;;;5072313;28;20044;-67
2021/06/15 05:43:04;;;;;;;0.13;0.13;;;19.80;74.00;;;;;;5074815;28;20036;-67
2021/06/15 05:45:30;;;;;;;0.10;0.10;;;19.80;73.60;;;;;;5072292;28;20052;-67
2021/06/15 05:47:56;;;;;;;0.10;0.10;;;19.70;74.10;;;;;;5073430;28;20045;-67
2021/06/15 05:50:23;;;;;;;0.10;0.10;;;19.60;74.10;;;;;;5074796;28;20040;-67
2021/06/15 05:52:49;;;;;;;0.05;0.05;;;19.60;74.80;;;;;;5072020;28;20053;-67
2021/06/15 05:55:16;;;;;;;0.10;0.10;;;19.70;74.50;;;;;;5072009;28;20040;-67
2021/06/15 05:57:42;;;;;;;0.00;0.00;;;19.70;74.20;;;;;;5071455;28;20048;-67
2021/06/15 06:00:10;;;;;;;0.03;0.03;;;19.80;73.90;;;;;;5074425;28;20040;-67
2021/06/15 06:02:36;;;;;;;0.00;0.00;;;19.80;73.50;;;;;;5069248;28;20124;-67
2021/06/15 06:08:04;;;;;;;0.10;0.10;;;19.70;74.20;;;;;;5053913;28;20051;-68
2021/06/15 06:08:26;;;;;;;0.10;0.10;;;19.70;74.20;;;;;;5058756;28;20052;-67
2021/06/15 06:10:46;;;;;;;0.03;0.03;;;19.80;74.30;;;;;;5063588;28;20047;-68
2021/06/15 06:13:12;;;;;;;0.10;0.10;;;19.90;74.00;;;;;;5062082;28;20049;-67
2021/06/15 06:15:40;;;;;;;0.00;0.00;;;19.90;73.60;;;;;;5059017;28;20072;-68
2021/06/15 06:18:09;;;;;;;0.00;0.00;;;19.90;73.80;;;;;;5056877;28;20186;-67
2021/06/15 06:20:37;;;;;;;0.10;0.10;;;19.80;73.70;;;;;;5056616;28;20049;-70
2021/06/15 06:23:04;;;;;;;0.10;0.10;;;19.90;74.00;;;;;;5061640;28;20048;-68
2021/06/15 06:25:32;;;;;;;0.20;0.13;;;19.90;73.90;;;;;;5078829;28;20048;-67
2021/06/15 06:27:59;;;;;;;0.10;0.10;;;19.90;73.70;;;;;;5070794;28;20119;-67
2021/06/15 06:30:25;;;;;;;0.10;0.10;;;20.10;73.10;;;;;;5073415;28;20153;-67
2021/06/15 06:32:52;;;;;;;0.10;0.10;;;20.10;72.60;;;;;;5072508;28;20044;-67
2021/06/15 06:35:18;;;;;;;0.10;0.10;;;20.20;72.50;;;;;;5071572;28;20045;-66
2021/06/15 06:37:45;;;;;;;0.15;0.15;;;20.20;72.30;;;;;;5073092;28;20045;-66
2021/06/15 06:40:12;;;;;;;0.10;0.10;;;20.20;72.40;;;;;;5063970;28;20041;-66
2021/06/15 06:42:39;;;;;;;0.00;0.00;;;20.30;72.10;;;;;;5067067;28;20048;-66
2021/06/15 06:45:06;;;;;;;0.05;0.05;;;20.40;71.40;;;;;;5061553;28;20137;-70
2021/06/15 06:47:32;;;;;;;0.10;0.10;;;20.40;71.70;;;;;;5058621;28;20052;-65
2021/06/15 06:49:59;;;;;;;0.10;0.00;;;20.50;71.70;;;;;;5051764;28;20049;-67
2021/06/15 06:52:25;;;;;;;0.00;0.00;;;20.50;71.00;;;;;;5052436;28;20120;-67
2021/06/15 06:54:51;;;;;;;0.38;0.13;;;20.60;70.80;;;;;;5053092;28;20123;-67
2021/06/15 06:57:18;;;;;;;0.10;0.10;;;20.70;70.80;;;;;;5052820;28;20512;-67
2021/06/15 06:59:44;;;;;;;0.10;0.10;;;20.80;71.00;;;;;;5051885;28;20041;-67
2021/06/15 07:02:10;;;;;;;0.10;0.10;;;20.90;70.50;;;;;;5051628;28;20086;-67
2021/06/15 07:04:37;;;;;;;0.08;0.08;;;20.90;70.00;;;;;;5058424;28;20044;-64
2021/06/15 07:07:04;;;;;;;0.00;0.00;;;21.00;69.90;;;;;;5067890;28;20051;-66
2021/06/15 07:09:30;;;;;;;0.10;0.00;;;21.10;69.70;;;;;;5078980;28;20048;-65
2021/06/15 07:11:56;;;;;;;0.20;0.20;;;21.20;69.30;;;;;;5062753;28;20052;-67
2021/06/15 07:14:23;;;;;;;0.03;0.03;;;21.30;68.50;;;;;;5079252;28;20040;-66
2021/06/15 07:16:49;;;;;;;0.10;0.10;;;21.20;68.70;;;;;;5071338;28;20052;-65
2021/06/15 07:19:15;;;;;;;0.13;0.13;;;21.20;68.90;;;;;;5054742;28;20036;-66
2021/06/15 07:21:42;;;;;;;0.20;0.20;;;21.20;69.10;;;;;;5051586;28;20080;-66
2021/06/15 07:24:08;;;;;;;0.10;0.10;;;21.10;69.10;;;;;;5066591;28;20059;-65
2021/06/15 07:26:35;;;;;;;0.10;0.10;;;21.10;69.50;;;;;;5054589;28;20143;-65
2021/06/15 07:29:02;;;;;;;0.80;0.20;;;21.10;69.20;;;;;;5055398;28;20067;-66
2021/06/15 07:31:29;;;;;;;0.10;0.10;;;21.10;69.20;;;;;;5061154;28;20060;-66
2021/06/15 07:33:56;;;;;;;0.08;0.08;;;21.20;69.30;;;;;;5069954;28;20048;-65
2021/06/15 07:36:22;;;;;;;0.10;0.10;;;21.30;68.90;;;;;;5062207;28;20057;-66
2021/06/15 07:38:51;;;;;;;0.13;0.13;;;21.30;68.80;;;;;;5083405;28;20059;-66
2021/06/15 07:41:17;;;;;;;0.10;0.10;;;21.40;68.20;;;;;;5072227;28;20041;-66
2021/06/15 07:43:43;;;;;;;0.10;0.10;;;21.40;68.50;;;;;;5061733;28;20049;-67
2021/06/15 07:46:10;;;;;;;0.15;0.15;;;21.50;67.60;;;;;;5061312;28;20045;-69
2021/06/15 07:48:36;;;;;;;0.38;0.10;;;21.60;67.70;;;;;;5059431;28;20191;-68
2021/06/15 07:51:03;;;;;;;0.00;0.00;;;21.70;67.50;;;;;;5059907;28;20109;-68
2021/06/15 07:53:29;;;;;;;0.20;0.13;;;21.90;66.70;;;;;;5057166;28;20061;-68
2021/06/15 07:55:56;;;;;;;0.17;0.17;;;22.00;66.10;;;;;;5081800;28;20051;-69
2021/06/15 07:58:22;;;;;;;0.10;0.10;;;22.10;66.00;;;;;;5067498;28;20146;-69
2021/06/15 08:00:49;;;;;;;0.10;0.10;;;22.30;65.20;;;;;;5081488;28;20108;-65
2021/06/15 08:03:15;;;;;;;0.13;0.13;;;22.60;64.50;;;;;;5077687;28;20045;-66
2021/06/15 08:05:41;;;;;;;0.15;0.15;;;22.80;63.80;;;;;;5068017;28;20044;-66
2021/06/15 08:08:08;;;;;;;0.15;0.15;;;23.00;63.70;;;;;;5084994;28;20435;-66
2021/06/15 08:10:34;;;;;;;0.10;0.10;;;23.10;63.00;;;;;;5078613;28;20059;-67
2021/06/15 08:13:01;;;;;;;0.10;0.10;;;23.20;62.50;;;;;;5062768;28;20096;-66
2021/06/15 08:15:28;;;;;;;0.10;0.10;;;23.30;62.20;;;;;;5058903;28;20048;-66
2021/06/15 08:17:54;;;;;;;0.10;0.10;;;23.40;62.10;;;;;;5060064;28;20071;-66
2021/06/15 08:20:20;;;;;;;0.10;0.10;;;23.50;62.00;;;;;;5072496;28;20102;-65
2021/06/15 08:22:47;;;;;;;0.10;0.10;;;23.60;61.20;;;;;;5073400;28;20072;-67
2021/06/15 08:25:13;;;;;;;0.10;0.10;;;23.50;60.70;;;;;;5083673;28;20101;-67
2021/06/15 08:27:40;;;;;;;0.32;0.10;;;23.30;61.30;;;;;;5093737;28;20051;-67
2021/06/15 08:30:08;;;;;;;0.10;0.10;;;23.30;61.40;;;;;;5093636;28;20060;-66
2021/06/15 08:32:34;;;;;;;0.10;0.10;;;23.30;61.60;;;;;;5093918;28;20136;-68
2021/06/15 08:35:01;;;;;;;0.00;0.00;;;23.30;61.30;;;;;;5068889;28;20051;-67
2021/06/15 08:37:27;;;;;;;0.10;0.10;;;23.40;61.70;;;;;;5063195;28;20037;-68
2021/06/15 08:39:54;;;;;;;0.10;0.10;;;23.60;61.50;;;;;;5056067;28;20493;-68
2021/06/15 08:42:20;;;;;;;0.35;0.13;;;23.80;61.00;;;;;;5073400;28;20052;-69
2021/06/15 08:44:47;;;;;;;0.13;0.13;;;24.00;60.30;;;;;;5072851;28;20048;-66
2021/06/15 08:47:15;;;;;;;0.00;0.00;;;24.20;59.20;;;;;;5051913;28;20049;-65
2021/06/15 08:49:43;;;;;;;0.13;0.13;;;24.50;58.50;;;;;;5062307;28;20150;-69
2021/06/15 08:52:09;;;;;;;0.38;0.20;;;24.60;57.10;;;;;;5057579;28;20049;-69
2021/06/15 08:54:38;;;;;;;0.20;0.17;;;24.80;56.60;;;;;;5061045;28;20068;-67
2021/06/15 08:57:05;;;;;;;0.10;0.10;;;25.20;55.90;;;;;;5061810;28;20200;-67
2021/06/15 08:59:31;;;;;;;0.22;0.17;;;25.30;55.40;;;;;;5080183;28;20318;-66
2021/06/15 09:02:07;;;;;;;0.13;0.13;;;25.30;54.70;;;;;;5072686;28;20424;-67
2021/06/15 09:04:34;;;;;;;0.17;0.17;;;25.40;55.30;;;;;;5073717;28;20427;-65
2021/06/15 09:07:01;;;;;;;0.10;0.10;;;25.70;55.00;;;;;;5075885;28;20052;-65
2021/06/15 09:09:42;;;;;;;0.20;0.10;;;25.90;54.40;;;;;;5067943;28;20048;-66
2021/06/15 09:12:21;;;;;;;0.10;0.10;;;26.10;54.00;;;;;;5077003;28;20044;-64
2021/06/15 09:14:55;;;;;;;0.40;0.10;;;26.20;53.60;;;;;;5079784;28;20518;-65
2021/06/15 09:17:28;;;;;;;0.40;0.20;;;26.20;53.20;;;;;;5082184;28;20476;-65
2021/06/15 09:19:55;;;;;;;0.00;0.00;;;26.20;54.20;;;;;;5072243;28;20415;-69
2021/06/15 09:22:33;;;;;;;0.60;0.20;;;26.30;53.60;;;;;;5072516;28;20067;-69
2021/06/15 09:25:01;;;;;;;0.43;0.10;;;26.50;53.90;;;;;;5072569;28;20048;-69
2021/06/15 09:27:38;;;;;;;0.10;0.10;;;26.70;52.70;;;;;;5072318;28;20158;-69
2021/06/15 09:30:07;;;;;;;0.10;0.10;;;26.90;52.20;;;;;;5071765;28;20048;-69
2021/06/15 09:32:39;;;;;;;0.00;0.00;;;27.00;50.80;;;;;;5084860;28;20048;-69
2021/06/15 09:35:10;;;;;;;0.10;0.00;;;27.10;51.00;;;;;;5072341;28;20047;-69
2021/06/15 09:37:42;;;;;;;0.00;0.00;;;27.10;50.20;;;;;;5072299;28;20048;-69
2021/06/15 09:40:19;;;;;;;0.10;0.10;;;27.20;49.70;;;;;;5072193;28;20459;-69
2021/06/15 09:42:55;;;;;;;0.10;0.10;;;27.00;51.00;;;;;;5051251;28;20086;-70
2021/06/15 09:45:24;;;;;;;0.17;0.17;;;27.10;50.50;;;;;;5079776;28;20424;-69
2021/06/15 09:47:51;;;;;;;0.10;0.10;;;27.20;50.70;;;;;;5072042;28;20055;-69
2021/06/15 09:50:21;;;;;;;0.10;0.10;;;27.10;50.10;;;;;;5072173;28;20501;-69
2021/06/15 09:52:47;;;;;;;0.00;0.00;;;26.90;50.90;;;;;;5084923;28;20045;-69
2021/06/15 09:55:17;;;;;;;0.00;0.00;;;26.90;51.50;;;;;;5069951;28;20049;-69
2021/06/15 09:57:48;;;;;;;0.00;0.00;;;27.10;51.40;;;;;;5076652;28;20056;-71
2021/06/15 10:00:16;;;;;;;0.00;0.00;;;27.20;51.70;;;;;;5069456;28;20052;-70
2021/06/15 10:02:49;;;;;;;0.15;0.15;;;27.50;50.80;;;;;;5059204;28;20045;-69
2021/06/15 10:05:37;;;;;;;0.00;0.00;;;27.80;49.90;;;;;;5079439;28;20506;-69
2021/06/15 10:08:05;;;;;;;0.05;0.05;;;28.00;49.60;;;;;;5052989;28;20127;-69
2021/06/15 10:10:47;;;;;;;0.03;0.03;;;28.00;48.50;;;;;;5054826;28;20049;-67
2021/06/15 10:13:13;;;;;;;0.10;0.00;;;27.90;46.80;;;;;;5045282;28;20060;-67
2021/06/15 10:15:43;;;;;;;0.10;0.03;;;27.90;48.80;;;;;;5037658;28;20048;-67
2021/06/15 10:18:09;;;;;;;0.10;0.10;;;27.90;47.00;;;;;;5057807;28;20052;-67
2021/06/15 10:20:37;;;;;;;0.00;0.00;;;27.80;47.90;;;;;;5068017;28;20500;-67
2021/06/15 10:23:05;;;;;;;0.13;0.10;;;27.70;48.50;;;;;;5072664;28;20036;-67
2021/06/15 10:25:32;;;;;;;0.00;0.00;;;27.70;49.50;;;;;;5073909;28;20052;-67
2021/06/15 10:28:07;;;;;;;0.10;0.10;;;27.80;49.10;;;;;;5074542;28;20128;-67
2021/06/15 10:30:35;;;;;;;0.00;0.00;;;27.90;48.50;;;;;;5072548;28;20510;-69
2021/06/15 10:33:14;;;;;;;0.22;0.10;;;28.00;46.10;;;;;;5074589;28;20496;-69
2021/06/15 10:35:47;;;;;;;0.00;0.00;;;28.00;46.70;;;;;;5073696;28;20068;-69
2021/06/15 10:38:25;;;;;;;0.10;0.10;;;27.90;46.30;;;;;;5073509;28;20408;-69
2021/06/15 10:40:54;;;;;;;0.10;0.10;;;27.70;47.40;;;;;;5072667;28;20045;-69
2021/06/15 10:43:30;;;;;;;0.20;0.03;;;27.60;49.00;;;;;;5072347;28;20049;-69
2021/06/15 10:45:59;;;;;;;0.00;0.00;;;27.70;47.50;;;;;;5075162;28;20132;-69
2021/06/15 10:48:28;;;;;;;0.00;0.00;;;27.50;48.70;;;;;;5076815;28;20451;-69
2021/06/15 10:50:58;;;;;;;0.00;0.00;;;27.30;48.50;;;;;;5074709;28;20051;-69
2021/06/15 10:53:37;;;;;;;0.00;0.00;;;27.20;47.80;;;;;;5071945;28;20719;-69
2021/06/15 10:56:05;;;;;;;0.00;0.00;;;26.90;48.80;;;;;;5074050;28;20052;-69
2021/06/15 10:58:31;;;;;;;0.10;0.10;;;26.60;50.40;;;;;;5073843;28;20127;-69
2021/06/15 11:01:20;;;;;;;0.05;0.05;;;26.60;50.00;;;;;;5074297;28;20044;-69
2021/06/15 11:04:02;;;;;;;0.00;0.00;;;26.70;50.60;;;;;;5073565;28;20041;-66
2021/06/15 11:06:29;;;;;;;0.22;0.00;;;26.70;51.20;;;;;;5068217;28;20048;-69
2021/06/15 11:09:16;;;;;;;0.00;0.00;;;26.90;50.60;;;;;;5071738;28;20051;-69
2021/06/15 11:12:09;;;;;;;0.00;0.00;;;26.90;49.30;;;;;;5071185;28;20174;-69
2021/06/15 11:14:37;;;;;;;0.00;0.00;;;26.80;50.30;;;;;;5062713;28;20045;-69
2021/06/15 11:17:07;;;;;;;0.20;0.10;;;26.90;51.30;;;;;;5072791;28;20154;-69
2021/06/15 11:19:38;;;;;;;0.00;0.00;;;27.10;50.70;;;;;;5073996;28;20412;-69
2021/06/15 11:22:07;;;;;;;;;;;27.10;51.20;;;;;;5071961;28;20440;-69
2021/06/15 11:24:38;;;;;;;0.10;0.10;;;27.30;50.70;;;;;;5072751;28;19935;-69
2021/06/15 11:27:27;;;;;;;0.00;0.00;;;27.30;50.60;;;;;;5070800;28;20539;-68
2021/06/15 11:29:56;;;;;;;0.10;0.10;;;27.40;49.60;;;;;;5070721;28;20135;-69
2021/06/15 11:32:29;;;;;;;0.00;0.00;;;27.60;49.30;;;;;;5072774;28;20083;-69
2021/06/15 11:34:56;;;;;;;0.00;0.00;;;27.70;49.10;;;;;;5068918;28;20060;-69
2021/06/15 11:37:28;;;;;;;0.10;0.10;;;27.70;48.40;;;;;;5072276;28;20044;-70
2021/06/15 11:40:16;;;;;;;0.00;0.00;;;27.80;47.70;;;;;;5077220;28;20048;-70
2021/06/15 11:43:12;;;;;;;0.00;0.00;;;27.80;47.00;;;;;;5068571;28;20045;-68
2021/06/15 11:45:43;;;;;;;0.10;0.10;;;27.70;46.30;;;;;;5055904;28;20088;-70
2021/06/15 11:48:34;;;;;;;0.10;0.08;;;27.50;47.90;;;;;;5073373;28;20048;-70
2021/06/15 11:51:04;;;;;;;0.00;0.00;;;27.40;46.90;;;;;;5054304;28;20056;-70
2021/06/15 11:53:36;;;;;;;0.00;0.00;;;27.50;47.60;;;;;;5085889;28;20143;-70
2021/06/15 11:56:08;;;;;;;0.00;0.00;;;27.50;47.60;;;;;;5084902;28;20068;-70
2021/06/15 11:58:37;;;;;;;0.00;0.00;;;27.50;46.80;;;;;;5091401;28;20126;-69
2021/06/15 12:01:11;;;;;;;0.30;0.03;;;27.60;47.60;;;;;;5084256;28;20049;-69
2021/06/15 12:03:42;;;;;;;0.00;0.00;;;27.60;45.90;;;;;;5072032;28;20044;-69
2021/06/15 12:06:11;;;;;;;0.03;0.03;;;27.60;47.00;;;;;;5091046;28;20048;-70
2021/06/15 12:08:43;;;;;;;0.85;0.17;;;27.70;47.20;;;;;;5091535;28;20044;-70
2021/06/15 12:11:14;;;;;;;0.00;0.00;;;27.70;46.90;;;;;;5085767;28;20048;-70
2021/06/15 12:13:42;;;;;;;0.28;0.05;;;27.80;47.70;;;;;;5074410;28;20060;-73
2021/06/15 12:16:12;;;;;;;0.40;0.20;;;27.80;47.20;;;;;;5072540;28;20047;-69
2021/06/15 12:18:41;;;;;;;0.10;0.10;;;27.80;48.00;;;;;;5070678;28;20499;-70
2021/06/15 12:21:21;;;;;;;1.77;0.85;;;27.90;47.80;;;;;;5070456;28;20044;-71
2021/06/15 12:23:49;;;;;;;;;;;28.00;47.50;;;;;;5070963;28;20178;-68
2021/06/15 12:26:26;;;;;;;0.52;0.20;;;28.10;46.50;;;;;;5074567;28;19920;-73
2021/06/15 12:28:58;;;;;;;0.10;0.10;;;28.10;46.40;;;;;;5060496;28;20077;-69
2021/06/15 12:31:36;;;;;;;0.00;0.00;;;28.00;45.50;;;;;;5079925;28;20081;-69
2021/06/15 12:34:05;;;;;;;0.00;0.00;;;27.90;45.80;;;;;;5055806;28;20523;-69
2021/06/15 12:36:44;;;;;;;0.00;0.00;;;27.80;47.10;;;;;;5067000;28;20103;-70
2021/06/15 12:39:14;;;;;;;0.00;0.00;;;27.90;45.80;;;;;;5066167;28;20470;-70
2021/06/15 12:42:05;;;;;;;0.00;0.00;;;27.80;46.20;;;;;;5083880;28;20051;-70
2021/06/15 12:44:34;;;;;;;0.60;0.10;;;27.80;44.80;;;;;;5060290;28;20433;-70
2021/06/15 12:47:05;;;;;;;0.00;0.00;;;27.80;45.40;;;;;;5081745;28;20052;-69
2021/06/15 12:49:32;;;;;;;0.20;0.00;;;27.70;45.60;;;;;;5073791;28;20466;-69
2021/06/15 12:52:12;;;;;;;0.00;0.00;;;27.70;46.00;;;;;;5066216;28;20511;-70
2021/06/15 12:54:42;;;;;;;;;;;27.80;45.90;;;;;;5069376;28;20179;-70
2021/06/15 12:57:11;;;;;;;0.00;0.00;;;27.90;44.90;;;;;;5079665;28;19928;-70
2021/06/15 12:59:41;;;;;;;0.00;0.00;;;27.90;43.60;;;;;;5080000;28;20445;-70
2021/06/15 13:02:18;;;;;;;0.05;0.05;;;27.80;43.90;;;;;;5071500;28;20037;-71
2021/06/15 13:04:51;;;;;;;0.00;0.00;;;27.80;45.30;;;;;;5079182;28;20056;-70
2021/06/15 13:07:18;;;;;;;0.05;0.00;;;27.90;45.80;;;;;;5073762;28;20048;-71